sensor_id;sensor_type;location;lat;lon;timestamp;P1;durP1;ratioP1;P2;durP2;ratioP2
23747;SDS011;12054;53.662;10.126;2022-08-19T00:02:06;16.30;;;12.10;;
23747;SDS011;12054;53.662;10.126;2022-08-19T00:04:32;16.88;;;11.02;;
23747;SDS011;12054;53.662;10.126;2022-08-19T00:07:01;14.25;;;11.32;;
23747;SDS011;12054;53.662;10.126;2022-08-19T00:09:28;18.65;;;12.85;;
23747;SDS011;12054;53.662;10.126;2022-08-19T00:11:54;17.77;;;12.75;;
23747;SDS011;12054;53.662;10.126;2022-08-19T00:14:21;16.60;;;11.68;;
23747;SDS011;12054;53.662;10.126;2022-08-19T00:16:47;17.15;;;12.85;;
23747;SDS011;12054;53.662;10.126;2022-08-19T00:19:14;23.50;;;13.40;;
23747;SDS011;12054;53.662;10.126;2022-08-19T00:21:40;17.38;;;13.25;;
23747;SDS011;12054;53.662;10.126;2022-08-19T00:24:07;19.60;;;14.10;;
23747;SDS011;12054;53.662;10.126;2022-08-19T00:26:34;17.00;;;14.10;;
23747;SDS011;12054;53.662;10.126;2022-08-19T00:29:00;17.30;;;13.40;;
23747;SDS011;12054;53.662;10.126;2022-08-19T00:31:26;19.58;;;14.75;;
23747;SDS011;12054;53.662;10.126;2022-08-19T00:33:53;19.58;;;14.40;;
23747;SDS011;12054;53.662;10.126;2022-08-19T00:36:19;20.25;;;14.88;;
23747;SDS011;12054;53.662;10.126;2022-08-19T00:38:44;20.92;;;15.00;;
23747;SDS011;12054;53.662;10.126;2022-08-19T00:41:12;21.13;;;14.75;;
23747;SDS011;12054;53.662;10.126;2022-08-19T00:43:39;21.38;;;14.48;;
23747;SDS011;12054;53.662;10.126;2022-08-19T00:46:06;25.02;;;15.15;;
23747;SDS011;12054;53.662;10.126;2022-08-19T00:48:32;22.20;;;14.52;;
23747;SDS011;12054;53.662;10.126;2022-08-19T00:50:59;21.27;;;15.43;;
23747;SDS011;12054;53.662;10.126;2022-08-19T00:53:26;25.00;;;15.07;;
23747;SDS011;12054;53.662;10.126;2022-08-19T00:55:56;22.83;;;14.68;;
23747;SDS011;12054;53.662;10.126;2022-08-19T00:58:26;21.58;;;14.57;;
23747;SDS011;12054;53.662;10.126;2022-08-19T01:00:55;21.63;;;15.55;;
23747;SDS011;12054;53.662;10.126;2022-08-19T01:03:21;21.00;;;14.68;;
23747;SDS011;12054;53.662;10.126;2022-08-19T01:05:47;25.80;;;15.90;;
23747;SDS011;12054;53.662;10.126;2022-08-19T01:08:16;25.13;;;14.63;;
23747;SDS011;12054;53.662;10.126;2022-08-19T01:10:45;23.15;;;14.95;;
23747;SDS011;12054;53.662;10.126;2022-08-19T01:13:21;23.50;;;15.98;;
23747;SDS011;12054;53.662;10.126;2022-08-19T01:15:54;23.13;;;15.35;;
23747;SDS011;12054;53.662;10.126;2022-08-19T01:18:26;23.30;;;15.40;;
23747;SDS011;12054;53.662;10.126;2022-08-19T01:20:53;23.00;;;15.52;;
23747;SDS011;12054;53.662;10.126;2022-08-19T01:23:21;24.33;;;15.43;;
23747;SDS011;12054;53.662;10.126;2022-08-19T01:26:07;26.48;;;16.25;;
23747;SDS011;12054;53.662;10.126;2022-08-19T01:28:44;27.73;;;17.00;;
23747;SDS011;12054;53.662;10.126;2022-08-19T01:31:13;27.25;;;17.23;;
23747;SDS011;12054;53.662;10.126;2022-08-19T01:33:41;24.42;;;16.42;;
23747;SDS011;12054;53.662;10.126;2022-08-19T01:36:08;26.30;;;17.40;;
23747;SDS011;12054;53.662;10.126;2022-08-19T01:38:37;26.02;;;17.52;;
23747;SDS011;12054;53.662;10.126;2022-08-19T01:41:04;27.52;;;17.33;;
23747;SDS011;12054;53.662;10.126;2022-08-19T01:43:31;27.92;;;16.98;;
23747;SDS011;12054;53.662;10.126;2022-08-19T01:45:57;24.77;;;17.45;;
23747;SDS011;12054;53.662;10.126;2022-08-19T01:48:23;26.48;;;17.17;;
23747;SDS011;12054;53.662;10.126;2022-08-19T01:50:48;26.52;;;16.95;;
23747;SDS011;12054;53.662;10.126;2022-08-19T01:53:15;23.70;;;17.63;;
23747;SDS011;12054;53.662;10.126;2022-08-19T01:55:41;27.58;;;17.77;;
23747;SDS011;12054;53.662;10.126;2022-08-19T01:58:13;26.92;;;17.70;;
23747;SDS011;12054;53.662;10.126;2022-08-19T02:00:43;25.92;;;17.23;;
23747;SDS011;12054;53.662;10.126;2022-08-19T02:03:10;27.88;;;17.80;;
23747;SDS011;12054;53.662;10.126;2022-08-19T02:05:36;28.00;;;18.17;;
23747;SDS011;12054;53.662;10.126;2022-08-19T02:08:02;27.13;;;17.00;;
23747;SDS011;12054;53.662;10.126;2022-08-19T02:10:29;26.92;;;17.73;;
23747;SDS011;12054;53.662;10.126;2022-08-19T02:12:54;30.50;;;18.98;;
23747;SDS011;12054;53.662;10.126;2022-08-19T02:15:20;28.45;;;18.05;;
23747;SDS011;12054;53.662;10.126;2022-08-19T02:17:46;27.83;;;17.20;;
23747;SDS011;12054;53.662;10.126;2022-08-19T02:20:13;24.52;;;16.48;;
23747;SDS011;12054;53.662;10.126;2022-08-19T02:22:39;23.98;;;16.13;;
23747;SDS011;12054;53.662;10.126;2022-08-19T02:25:07;23.90;;;16.42;;
23747;SDS011;12054;53.662;10.126;2022-08-19T02:27:37;23.23;;;15.90;;
23747;SDS011;12054;53.662;10.126;2022-08-19T02:30:03;25.33;;;15.82;;
23747;SDS011;12054;53.662;10.126;2022-08-19T02:32:30;24.65;;;14.63;;
23747;SDS011;12054;53.662;10.126;2022-08-19T02:34:57;23.33;;;15.05;;
23747;SDS011;12054;53.662;10.126;2022-08-19T02:37:24;25.98;;;15.88;;
23747;SDS011;12054;53.662;10.126;2022-08-19T02:40:08;24.70;;;15.25;;
23747;SDS011;12054;53.662;10.126;2022-08-19T02:42:34;22.65;;;14.60;;
23747;SDS011;12054;53.662;10.126;2022-08-19T02:45:00;22.95;;;13.65;;
23747;SDS011;12054;53.662;10.126;2022-08-19T02:47:25;23.77;;;14.95;;
23747;SDS011;12054;53.662;10.126;2022-08-19T02:49:51;25.42;;;15.93;;
23747;SDS011;12054;53.662;10.126;2022-08-19T02:52:16;29.73;;;16.45;;
23747;SDS011;12054;53.662;10.126;2022-08-19T02:54:42;29.60;;;16.35;;
23747;SDS011;12054;53.662;10.126;2022-08-19T02:57:08;25.70;;;15.35;;
23747;SDS011;12054;53.662;10.126;2022-08-19T02:59:34;25.55;;;15.13;;
23747;SDS011;12054;53.662;10.126;2022-08-19T03:02:00;27.02;;;14.73;;
23747;SDS011;12054;53.662;10.126;2022-08-19T03:04:25;25.80;;;15.43;;
23747;SDS011;12054;53.662;10.126;2022-08-19T03:06:51;29.35;;;15.88;;
23747;SDS011;12054;53.662;10.126;2022-08-19T03:09:18;31.33;;;16.55;;
23747;SDS011;12054;53.662;10.126;2022-08-19T03:11:44;27.55;;;15.98;;
23747;SDS011;12054;53.662;10.126;2022-08-19T03:14:11;27.45;;;15.48;;
23747;SDS011;12054;53.662;10.126;2022-08-19T03:16:45;27.67;;;16.02;;
23747;SDS011;12054;53.662;10.126;2022-08-19T03:19:13;28.90;;;15.55;;
23747;SDS011;12054;53.662;10.126;2022-08-19T03:21:42;27.40;;;15.63;;
23747;SDS011;12054;53.662;10.126;2022-08-19T03:24:09;25.98;;;15.77;;
23747;SDS011;12054;53.662;10.126;2022-08-19T03:26:38;26.25;;;15.55;;
23747;SDS011;12054;53.662;10.126;2022-08-19T03:29:07;24.48;;;14.93;;
23747;SDS011;12054;53.662;10.126;2022-08-19T03:31:35;27.58;;;14.93;;
23747;SDS011;12054;53.662;10.126;2022-08-19T03:34:01;24.85;;;14.75;;
23747;SDS011;12054;53.662;10.126;2022-08-19T03:36:27;27.08;;;15.32;;
23747;SDS011;12054;53.662;10.126;2022-08-19T03:38:54;24.38;;;15.25;;
23747;SDS011;12054;53.662;10.126;2022-08-19T03:41:23;22.63;;;14.05;;
23747;SDS011;12054;53.662;10.126;2022-08-19T03:43:51;23.85;;;14.65;;
23747;SDS011;12054;53.662;10.126;2022-08-19T03:46:23;23.55;;;14.02;;
23747;SDS011;12054;53.662;10.126;2022-08-19T03:48:54;24.50;;;14.48;;
23747;SDS011;12054;53.662;10.126;2022-08-19T03:51:22;23.95;;;13.60;;
23747;SDS011;12054;53.662;10.126;2022-08-19T03:53:50;22.25;;;13.52;;
23747;SDS011;12054;53.662;10.126;2022-08-19T03:56:17;21.27;;;13.80;;
23747;SDS011;12054;53.662;10.126;2022-08-19T03:58:43;25.20;;;13.25;;
23747;SDS011;12054;53.662;10.126;2022-08-19T04:01:10;19.35;;;13.52;;
23747;SDS011;12054;53.662;10.126;2022-08-19T04:03:38;19.25;;;12.25;;
23747;SDS011;12054;53.662;10.126;2022-08-19T04:08:37;19.02;;;12.98;;
23747;SDS011;12054;53.662;10.126;2022-08-19T04:11:11;23.40;;;13.50;;
23747;SDS011;12054;53.662;10.126;2022-08-19T04:13:39;22.08;;;13.60;;
23747;SDS011;12054;53.662;10.126;2022-08-19T04:16:05;20.65;;;13.32;;
23747;SDS011;12054;53.662;10.126;2022-08-19T04:18:33;22.48;;;13.45;;
23747;SDS011;12054;53.662;10.126;2022-08-19T04:20:59;23.98;;;14.93;;
23747;SDS011;12054;53.662;10.126;2022-08-19T04:23:25;20.27;;;13.70;;
23747;SDS011;12054;53.662;10.126;2022-08-19T04:25:53;22.23;;;14.40;;
23747;SDS011;12054;53.662;10.126;2022-08-19T04:28:19;21.23;;;13.70;;
23747;SDS011;12054;53.662;10.126;2022-08-19T04:30:47;21.55;;;14.75;;
23747;SDS011;12054;53.662;10.126;2022-08-19T04:33:15;24.83;;;15.32;;
23747;SDS011;12054;53.662;10.126;2022-08-19T04:35:43;22.27;;;14.98;;
23747;SDS011;12054;53.662;10.126;2022-08-19T04:38:11;28.73;;;16.42;;
23747;SDS011;12054;53.662;10.126;2022-08-19T04:40:41;27.67;;;15.65;;
23747;SDS011;12054;53.662;10.126;2022-08-19T04:43:27;28.63;;;15.90;;
23747;SDS011;12054;53.662;10.126;2022-08-19T04:45:52;24.92;;;15.70;;
23747;SDS011;12054;53.662;10.126;2022-08-19T04:48:18;25.88;;;15.68;;
23747;SDS011;12054;53.662;10.126;2022-08-19T04:50:51;26.63;;;15.88;;
23747;SDS011;12054;53.662;10.126;2022-08-19T04:53:22;26.17;;;14.73;;
23747;SDS011;12054;53.662;10.126;2022-08-19T04:55:53;26.20;;;16.20;;
23747;SDS011;12054;53.662;10.126;2022-08-19T04:58:20;29.80;;;14.60;;
23747;SDS011;12054;53.662;10.126;2022-08-19T05:00:46;26.90;;;15.93;;
23747;SDS011;12054;53.662;10.126;2022-08-19T05:03:11;25.15;;;15.63;;
23747;SDS011;12054;53.662;10.126;2022-08-19T05:05:39;25.40;;;16.35;;
23747;SDS011;12054;53.662;10.126;2022-08-19T05:08:06;26.23;;;16.30;;
23747;SDS011;12054;53.662;10.126;2022-08-19T05:10:34;25.55;;;14.65;;
23747;SDS011;12054;53.662;10.126;2022-08-19T05:13:03;24.95;;;14.38;;
23747;SDS011;12054;53.662;10.126;2022-08-19T05:15:30;21.27;;;14.65;;
23747;SDS011;12054;53.662;10.126;2022-08-19T05:17:56;21.92;;;14.35;;
23747;SDS011;12054;53.662;10.126;2022-08-19T05:20:40;26.40;;;14.98;;
23747;SDS011;12054;53.662;10.126;2022-08-19T05:23:24;22.55;;;14.75;;
23747;SDS011;12054;53.662;10.126;2022-08-19T05:25:50;24.70;;;14.85;;
23747;SDS011;12054;53.662;10.126;2022-08-19T05:28:17;21.00;;;13.38;;
23747;SDS011;12054;53.662;10.126;2022-08-19T05:30:47;24.90;;;15.43;;
23747;SDS011;12054;53.662;10.126;2022-08-19T05:33:15;21.50;;;15.57;;
23747;SDS011;12054;53.662;10.126;2022-08-19T05:35:40;22.50;;;15.27;;
23747;SDS011;12054;53.662;10.126;2022-08-19T05:38:07;23.13;;;14.75;;
23747;SDS011;12054;53.662;10.126;2022-08-19T05:40:34;26.25;;;15.13;;
23747;SDS011;12054;53.662;10.126;2022-08-19T05:43:01;30.42;;;17.13;;
23747;SDS011;12054;53.662;10.126;2022-08-19T05:45:28;26.27;;;15.90;;
23747;SDS011;12054;53.662;10.126;2022-08-19T05:47:53;24.75;;;15.48;;
23747;SDS011;12054;53.662;10.126;2022-08-19T05:50:19;26.50;;;15.73;;
23747;SDS011;12054;53.662;10.126;2022-08-19T05:52:45;26.08;;;15.38;;
23747;SDS011;12054;53.662;10.126;2022-08-19T05:55:11;31.50;;;16.77;;
23747;SDS011;12054;53.662;10.126;2022-08-19T05:57:37;29.45;;;16.65;;
23747;SDS011;12054;53.662;10.126;2022-08-19T06:00:04;29.63;;;17.27;;
23747;SDS011;12054;53.662;10.126;2022-08-19T06:02:34;29.02;;;16.08;;
23747;SDS011;12054;53.662;10.126;2022-08-19T06:05:00;28.67;;;16.15;;
23747;SDS011;12054;53.662;10.126;2022-08-19T06:07:27;30.17;;;17.75;;
23747;SDS011;12054;53.662;10.126;2022-08-19T06:09:53;34.78;;;16.17;;
23747;SDS011;12054;53.662;10.126;2022-08-19T06:12:20;33.83;;;16.55;;
23747;SDS011;12054;53.662;10.126;2022-08-19T06:14:55;29.05;;;17.63;;
23747;SDS011;12054;53.662;10.126;2022-08-19T06:17:21;32.03;;;16.85;;
23747;SDS011;12054;53.662;10.126;2022-08-19T06:19:49;35.78;;;18.05;;
23747;SDS011;12054;53.662;10.126;2022-08-19T06:22:15;30.90;;;17.02;;
23747;SDS011;12054;53.662;10.126;2022-08-19T06:24:41;28.55;;;17.60;;
23747;SDS011;12054;53.662;10.126;2022-08-19T06:27:06;30.60;;;17.58;;
23747;SDS011;12054;53.662;10.126;2022-08-19T06:29:32;32.17;;;18.48;;
23747;SDS011;12054;53.662;10.126;2022-08-19T06:31:59;30.30;;;16.58;;
23747;SDS011;12054;53.662;10.126;2022-08-19T06:34:26;40.25;;;19.02;;
23747;SDS011;12054;53.662;10.126;2022-08-19T06:36:53;35.50;;;18.77;;
23747;SDS011;12054;53.662;10.126;2022-08-19T06:39:24;36.80;;;18.27;;
23747;SDS011;12054;53.662;10.126;2022-08-19T06:41:53;36.20;;;17.77;;
23747;SDS011;12054;53.662;10.126;2022-08-19T06:44:22;32.72;;;17.10;;
23747;SDS011;12054;53.662;10.126;2022-08-19T06:46:49;34.38;;;17.83;;
23747;SDS011;12054;53.662;10.126;2022-08-19T06:49:16;34.50;;;18.02;;
23747;SDS011;12054;53.662;10.126;2022-08-19T06:51:46;30.40;;;15.93;;
23747;SDS011;12054;53.662;10.126;2022-08-19T06:54:13;32.78;;;17.38;;
23747;SDS011;12054;53.662;10.126;2022-08-19T06:56:39;29.80;;;17.95;;
23747;SDS011;12054;53.662;10.126;2022-08-19T06:59:11;33.38;;;17.92;;
23747;SDS011;12054;53.662;10.126;2022-08-19T07:01:42;35.83;;;18.33;;
23747;SDS011;12054;53.662;10.126;2022-08-19T07:04:12;35.80;;;16.75;;
23747;SDS011;12054;53.662;10.126;2022-08-19T07:06:39;43.03;;;18.98;;
23747;SDS011;12054;53.662;10.126;2022-08-19T07:09:05;35.35;;;17.85;;
23747;SDS011;12054;53.662;10.126;2022-08-19T07:11:31;33.47;;;18.50;;
23747;SDS011;12054;53.662;10.126;2022-08-19T07:13:57;32.00;;;16.88;;
23747;SDS011;12054;53.662;10.126;2022-08-19T07:16:23;31.88;;;16.45;;
23747;SDS011;12054;53.662;10.126;2022-08-19T07:18:49;26.73;;;15.48;;
23747;SDS011;12054;53.662;10.126;2022-08-19T07:21:20;26.73;;;14.98;;
23747;SDS011;12054;53.662;10.126;2022-08-19T07:23:49;35.00;;;16.73;;
23747;SDS011;12054;53.662;10.126;2022-08-19T07:26:16;28.77;;;16.27;;
23747;SDS011;12054;53.662;10.126;2022-08-19T07:28:44;33.70;;;17.83;;
23747;SDS011;12054;53.662;10.126;2022-08-19T07:31:12;29.58;;;16.63;;
23747;SDS011;12054;53.662;10.126;2022-08-19T07:33:39;28.65;;;16.17;;
23747;SDS011;12054;53.662;10.126;2022-08-19T07:36:08;31.88;;;16.42;;
23747;SDS011;12054;53.662;10.126;2022-08-19T07:38:40;29.55;;;16.50;;
23747;SDS011;12054;53.662;10.126;2022-08-19T07:41:09;27.42;;;16.13;;
23747;SDS011;12054;53.662;10.126;2022-08-19T07:43:39;28.30;;;16.20;;
23747;SDS011;12054;53.662;10.126;2022-08-19T07:46:06;33.42;;;16.08;;
23747;SDS011;12054;53.662;10.126;2022-08-19T07:48:31;34.72;;;18.42;;
23747;SDS011;12054;53.662;10.126;2022-08-19T07:51:01;31.38;;;17.80;;
23747;SDS011;12054;53.662;10.126;2022-08-19T07:53:30;32.72;;;16.38;;
23747;SDS011;12054;53.662;10.126;2022-08-19T07:55:57;34.60;;;17.67;;
23747;SDS011;12054;53.662;10.126;2022-08-19T07:58:33;29.60;;;16.70;;
23747;SDS011;12054;53.662;10.126;2022-08-19T08:01:03;33.33;;;17.10;;
23747;SDS011;12054;53.662;10.126;2022-08-19T08:03:29;32.67;;;17.52;;
23747;SDS011;12054;53.662;10.126;2022-08-19T08:06:14;30.33;;;16.30;;
23747;SDS011;12054;53.662;10.126;2022-08-19T08:08:59;30.65;;;16.42;;
23747;SDS011;12054;53.662;10.126;2022-08-19T08:11:53;31.17;;;17.67;;
23747;SDS011;12054;53.662;10.126;2022-08-19T08:14:42;33.85;;;16.58;;
23747;SDS011;12054;53.662;10.126;2022-08-19T08:17:10;34.78;;;17.85;;
23747;SDS011;12054;53.662;10.126;2022-08-19T08:19:37;33.45;;;17.98;;
23747;SDS011;12054;53.662;10.126;2022-08-19T08:22:05;32.88;;;17.77;;
23747;SDS011;12054;53.662;10.126;2022-08-19T08:24:32;30.77;;;17.17;;
23747;SDS011;12054;53.662;10.126;2022-08-19T08:26:59;32.40;;;18.42;;
23747;SDS011;12054;53.662;10.126;2022-08-19T08:29:26;32.83;;;17.38;;
23747;SDS011;12054;53.662;10.126;2022-08-19T08:31:54;31.45;;;17.50;;
23747;SDS011;12054;53.662;10.126;2022-08-19T08:34:20;32.38;;;17.10;;
23747;SDS011;12054;53.662;10.126;2022-08-19T08:36:46;32.63;;;17.48;;
23747;SDS011;12054;53.662;10.126;2022-08-19T08:39:13;32.38;;;17.25;;
23747;SDS011;12054;53.662;10.126;2022-08-19T08:41:45;34.53;;;18.25;;
23747;SDS011;12054;53.662;10.126;2022-08-19T08:44:31;30.38;;;17.15;;
23747;SDS011;12054;53.662;10.126;2022-08-19T08:47:09;29.52;;;17.08;;
23747;SDS011;12054;53.662;10.126;2022-08-19T08:49:41;33.33;;;15.85;;
23747;SDS011;12054;53.662;10.126;2022-08-19T08:54:53;37.20;;;18.52;;
23747;SDS011;12054;53.662;10.126;2022-08-19T09:00:00;26.67;;;15.55;;
23747;SDS011;12054;53.662;10.126;2022-08-19T09:02:31;32.10;;;18.30;;
23747;SDS011;12054;53.662;10.126;2022-08-19T09:04:56;32.40;;;17.20;;
23747;SDS011;12054;53.662;10.126;2022-08-19T09:07:25;27.02;;;16.02;;
23747;SDS011;12054;53.662;10.126;2022-08-19T09:09:57;26.05;;;16.42;;
23747;SDS011;12054;53.662;10.126;2022-08-19T09:15:10;37.53;;;17.08;;
23747;SDS011;12054;53.662;10.126;2022-08-19T09:17:38;40.53;;;16.83;;
23747;SDS011;12054;53.662;10.126;2022-08-19T09:20:05;31.55;;;17.50;;
23747;SDS011;12054;53.662;10.126;2022-08-19T09:22:39;28.70;;;15.13;;
23747;SDS011;12054;53.662;10.126;2022-08-19T09:25:09;33.30;;;16.63;;
23747;SDS011;12054;53.662;10.126;2022-08-19T09:27:37;25.73;;;16.55;;
23747;SDS011;12054;53.662;10.126;2022-08-19T09:30:04;29.52;;;17.38;;
23747;SDS011;12054;53.662;10.126;2022-08-19T09:32:32;30.55;;;16.30;;
23747;SDS011;12054;53.662;10.126;2022-08-19T09:34:58;29.08;;;16.70;;
23747;SDS011;12054;53.662;10.126;2022-08-19T09:37:26;26.58;;;16.55;;
23747;SDS011;12054;53.662;10.126;2022-08-19T09:39:52;28.35;;;16.90;;
23747;SDS011;12054;53.662;10.126;2022-08-19T09:42:18;27.95;;;16.27;;
23747;SDS011;12054;53.662;10.126;2022-08-19T09:44:44;29.92;;;17.00;;
23747;SDS011;12054;53.662;10.126;2022-08-19T09:47:11;27.65;;;16.70;;
23747;SDS011;12054;53.662;10.126;2022-08-19T09:49:39;27.23;;;17.30;;
23747;SDS011;12054;53.662;10.126;2022-08-19T09:52:05;32.72;;;17.70;;
23747;SDS011;12054;53.662;10.126;2022-08-19T09:54:33;27.70;;;16.65;;
23747;SDS011;12054;53.662;10.126;2022-08-19T09:56:58;28.30;;;17.30;;
23747;SDS011;12054;53.662;10.126;2022-08-19T09:59:25;27.58;;;15.68;;
23747;SDS011;12054;53.662;10.126;2022-08-19T10:01:51;25.30;;;16.80;;
23747;SDS011;12054;53.662;10.126;2022-08-19T10:04:17;34.17;;;17.67;;
23747;SDS011;12054;53.662;10.126;2022-08-19T10:06:42;26.70;;;16.08;;
23747;SDS011;12054;53.662;10.126;2022-08-19T10:09:09;25.83;;;17.17;;
23747;SDS011;12054;53.662;10.126;2022-08-19T10:11:36;27.85;;;17.42;;
23747;SDS011;12054;53.662;10.126;2022-08-19T10:14:04;25.92;;;16.65;;
23747;SDS011;12054;53.662;10.126;2022-08-19T10:16:32;30.75;;;16.85;;
23747;SDS011;12054;53.662;10.126;2022-08-19T10:19:00;24.40;;;16.38;;
23747;SDS011;12054;53.662;10.126;2022-08-19T10:21:28;24.23;;;16.02;;
23747;SDS011;12054;53.662;10.126;2022-08-19T10:23:56;23.08;;;15.48;;
23747;SDS011;12054;53.662;10.126;2022-08-19T10:26:29;24.35;;;15.43;;
23747;SDS011;12054;53.662;10.126;2022-08-19T10:28:56;24.73;;;15.25;;
23747;SDS011;12054;53.662;10.126;2022-08-19T10:31:29;22.67;;;14.43;;
23747;SDS011;12054;53.662;10.126;2022-08-19T10:33:56;23.92;;;14.90;;
23747;SDS011;12054;53.662;10.126;2022-08-19T10:36:24;21.73;;;14.20;;
23747;SDS011;12054;53.662;10.126;2022-08-19T10:38:52;23.08;;;15.30;;
23747;SDS011;12054;53.662;10.126;2022-08-19T10:41:21;23.10;;;15.25;;
23747;SDS011;12054;53.662;10.126;2022-08-19T10:43:56;22.70;;;14.13;;
23747;SDS011;12054;53.662;10.126;2022-08-19T10:46:30;21.55;;;15.20;;
23747;SDS011;12054;53.662;10.126;2022-08-19T10:48:58;19.20;;;13.77;;
23747;SDS011;12054;53.662;10.126;2022-08-19T10:51:25;24.65;;;15.18;;
23747;SDS011;12054;53.662;10.126;2022-08-19T10:54:09;18.30;;;13.68;;
23747;SDS011;12054;53.662;10.126;2022-08-19T10:56:34;24.73;;;15.40;;
23747;SDS011;12054;53.662;10.126;2022-08-19T10:59:16;21.00;;;13.93;;
23747;SDS011;12054;53.662;10.126;2022-08-19T11:01:48;19.77;;;13.95;;
23747;SDS011;12054;53.662;10.126;2022-08-19T11:04:15;25.65;;;14.70;;
23747;SDS011;12054;53.662;10.126;2022-08-19T11:06:42;18.17;;;13.57;;
23747;SDS011;12054;53.662;10.126;2022-08-19T11:09:12;19.95;;;14.35;;
23747;SDS011;12054;53.662;10.126;2022-08-19T11:11:43;19.95;;;13.40;;
23747;SDS011;12054;53.662;10.126;2022-08-19T11:14:10;19.33;;;13.55;;
23747;SDS011;12054;53.662;10.126;2022-08-19T11:16:38;20.50;;;14.07;;
23747;SDS011;12054;53.662;10.126;2022-08-19T11:19:05;19.08;;;13.35;;
23747;SDS011;12054;53.662;10.126;2022-08-19T11:21:34;20.20;;;14.05;;
23747;SDS011;12054;53.662;10.126;2022-08-19T11:24:09;22.35;;;14.63;;
23747;SDS011;12054;53.662;10.126;2022-08-19T11:26:37;22.70;;;14.40;;
23747;SDS011;12054;53.662;10.126;2022-08-19T11:29:05;21.10;;;14.18;;
23747;SDS011;12054;53.662;10.126;2022-08-19T11:31:36;18.33;;;13.45;;
23747;SDS011;12054;53.662;10.126;2022-08-19T11:34:05;19.08;;;13.77;;
23747;SDS011;12054;53.662;10.126;2022-08-19T11:36:32;19.30;;;14.27;;
23747;SDS011;12054;53.662;10.126;2022-08-19T11:38:58;20.85;;;14.48;;
23747;SDS011;12054;53.662;10.126;2022-08-19T11:41:24;18.90;;;13.40;;
23747;SDS011;12054;53.662;10.126;2022-08-19T11:43:51;19.30;;;13.30;;
23747;SDS011;12054;53.662;10.126;2022-08-19T11:46:19;18.00;;;12.13;;
23747;SDS011;12054;53.662;10.126;2022-08-19T11:48:44;18.63;;;13.25;;
23747;SDS011;12054;53.662;10.126;2022-08-19T11:51:11;18.92;;;13.00;;
23747;SDS011;12054;53.662;10.126;2022-08-19T11:53:39;17.70;;;13.07;;
23747;SDS011;12054;53.662;10.126;2022-08-19T11:56:06;17.08;;;12.65;;
23747;SDS011;12054;53.662;10.126;2022-08-19T11:58:33;18.80;;;13.00;;
23747;SDS011;12054;53.662;10.126;2022-08-19T12:00:59;21.83;;;14.27;;
23747;SDS011;12054;53.662;10.126;2022-08-19T12:03:25;19.23;;;13.45;;
23747;SDS011;12054;53.662;10.126;2022-08-19T12:05:50;21.55;;;15.13;;
23747;SDS011;12054;53.662;10.126;2022-08-19T12:08:16;21.25;;;14.27;;
23747;SDS011;12054;53.662;10.126;2022-08-19T12:10:43;17.92;;;13.23;;
23747;SDS011;12054;53.662;10.126;2022-08-19T12:13:10;17.23;;;13.35;;
23747;SDS011;12054;53.662;10.126;2022-08-19T12:15:39;16.38;;;13.05;;
23747;SDS011;12054;53.662;10.126;2022-08-19T12:18:05;18.27;;;13.15;;
23747;SDS011;12054;53.662;10.126;2022-08-19T12:20:34;15.82;;;13.02;;
23747;SDS011;12054;53.662;10.126;2022-08-19T12:23:01;18.45;;;13.48;;
23747;SDS011;12054;53.662;10.126;2022-08-19T12:25:26;17.17;;;12.07;;
23747;SDS011;12054;53.662;10.126;2022-08-19T12:27:52;15.70;;;12.20;;
23747;SDS011;12054;53.662;10.126;2022-08-19T12:30:17;18.10;;;13.25;;
23747;SDS011;12054;53.662;10.126;2022-08-19T12:32:43;18.58;;;13.45;;
23747;SDS011;12054;53.662;10.126;2022-08-19T12:35:09;15.23;;;12.27;;
23747;SDS011;12054;53.662;10.126;2022-08-19T12:37:35;15.18;;;12.60;;
23747;SDS011;12054;53.662;10.126;2022-08-19T12:40:01;15.43;;;11.98;;
23747;SDS011;12054;53.662;10.126;2022-08-19T12:42:28;14.93;;;12.27;;
23747;SDS011;12054;53.662;10.126;2022-08-19T12:44:54;14.30;;;11.73;;
23747;SDS011;12054;53.662;10.126;2022-08-19T12:47:20;14.48;;;12.10;;
23747;SDS011;12054;53.662;10.126;2022-08-19T12:49:45;14.57;;;11.50;;
23747;SDS011;12054;53.662;10.126;2022-08-19T12:52:12;14.75;;;11.20;;
23747;SDS011;12054;53.662;10.126;2022-08-19T12:54:40;14.07;;;11.57;;
23747;SDS011;12054;53.662;10.126;2022-08-19T12:57:08;14.35;;;11.60;;
23747;SDS011;12054;53.662;10.126;2022-08-19T12:59:35;16.52;;;12.43;;
23747;SDS011;12054;53.662;10.126;2022-08-19T13:02:02;15.60;;;11.77;;
23747;SDS011;12054;53.662;10.126;2022-08-19T13:04:30;14.07;;;10.98;;
23747;SDS011;12054;53.662;10.126;2022-08-19T13:06:55;14.25;;;11.13;;
23747;SDS011;12054;53.662;10.126;2022-08-19T13:09:22;16.35;;;12.05;;
23747;SDS011;12054;53.662;10.126;2022-08-19T13:11:47;16.30;;;12.20;;
23747;SDS011;12054;53.662;10.126;2022-08-19T13:14:13;14.05;;;11.63;;
23747;SDS011;12054;53.662;10.126;2022-08-19T13:16:38;19.45;;;11.70;;
23747;SDS011;12054;53.662;10.126;2022-08-19T13:19:05;16.75;;;11.35;;
23747;SDS011;12054;53.662;10.126;2022-08-19T13:21:32;14.45;;;11.80;;
23747;SDS011;12054;53.662;10.126;2022-08-19T13:23:59;15.70;;;12.23;;
23747;SDS011;12054;53.662;10.126;2022-08-19T13:26:25;14.93;;;12.32;;
23747;SDS011;12054;53.662;10.126;2022-08-19T13:28:51;18.25;;;12.68;;
23747;SDS011;12054;53.662;10.126;2022-08-19T13:31:35;15.07;;;11.55;;
23747;SDS011;12054;53.662;10.126;2022-08-19T13:34:30;14.75;;;11.98;;
23747;SDS011;12054;53.662;10.126;2022-08-19T13:36:58;14.82;;;12.23;;
23747;SDS011;12054;53.662;10.126;2022-08-19T13:39:25;15.20;;;12.10;;
23747;SDS011;12054;53.662;10.126;2022-08-19T13:41:50;14.88;;;11.80;;
23747;SDS011;12054;53.662;10.126;2022-08-19T13:44:16;14.98;;;11.32;;
23747;SDS011;12054;53.662;10.126;2022-08-19T13:46:48;14.75;;;11.93;;
23747;SDS011;12054;53.662;10.126;2022-08-19T13:49:18;14.40;;;11.73;;
23747;SDS011;12054;53.662;10.126;2022-08-19T13:51:45;13.80;;;11.75;;
23747;SDS011;12054;53.662;10.126;2022-08-19T13:54:10;13.32;;;11.18;;
23747;SDS011;12054;53.662;10.126;2022-08-19T13:56:41;14.43;;;10.73;;
23747;SDS011;12054;53.662;10.126;2022-08-19T13:59:08;12.68;;;10.85;;
23747;SDS011;12054;53.662;10.126;2022-08-19T14:01:33;12.85;;;10.20;;
23747;SDS011;12054;53.662;10.126;2022-08-19T14:03:59;13.30;;;10.90;;
23747;SDS011;12054;53.662;10.126;2022-08-19T14:06:25;12.40;;;10.90;;
23747;SDS011;12054;53.662;10.126;2022-08-19T14:08:51;13.95;;;10.25;;
23747;SDS011;12054;53.662;10.126;2022-08-19T14:11:17;15.43;;;11.15;;
23747;SDS011;12054;53.662;10.126;2022-08-19T14:13:43;12.20;;;10.27;;
23747;SDS011;12054;53.662;10.126;2022-08-19T14:16:09;12.43;;;10.38;;
23747;SDS011;12054;53.662;10.126;2022-08-19T14:18:36;14.00;;;10.57;;
23747;SDS011;12054;53.662;10.126;2022-08-19T14:21:05;14.70;;;10.93;;
23747;SDS011;12054;53.662;10.126;2022-08-19T14:23:31;11.30;;;9.80;;
23747;SDS011;12054;53.662;10.126;2022-08-19T14:26:11;14.43;;;11.30;;